sensor_id;sensor_type;location;lat;lon;timestamp;P1;durP1;ratioP1;P2;durP2;ratioP2
79361;SDS011;68830;47.566;19.012;2023-07-31T00:00:47;3.00;;;2.70;;
79361;SDS011;68830;47.566;19.012;2023-07-31T00:03:49;3.45;;;2.67;;
79361;SDS011;68830;47.566;19.012;2023-07-31T00:06:52;6.32;;;3.47;;
79361;SDS011;68830;47.566;19.012;2023-07-31T00:09:55;4.47;;;3.08;;
79361;SDS011;68830;47.566;19.012;2023-07-31T00:12:58;4.95;;;2.80;;
79361;SDS011;68830;47.566;19.012;2023-07-31T00:15:59;3.33;;;2.97;;
79361;SDS011;68830;47.566;19.012;2023-07-31T00:19:02;4.53;;;2.83;;
79361;SDS011;68830;47.566;19.012;2023-07-31T00:22:05;7.40;;;3.65;;
79361;SDS011;68830;47.566;19.012;2023-07-31T00:25:07;4.25;;;3.55;;
79361;SDS011;68830;47.566;19.012;2023-07-31T00:28:09;3.80;;;3.40;;
79361;SDS011;68830;47.566;19.012;2023-07-31T00:31:11;4.80;;;3.30;;
79361;SDS011;68830;47.566;19.012;2023-07-31T00:34:14;3.92;;;3.50;;
79361;SDS011;68830;47.566;19.012;2023-07-31T00:37:17;4.55;;;4.15;;
79361;SDS011;68830;47.566;19.012;2023-07-31T00:40:19;4.80;;;3.78;;
79361;SDS011;68830;47.566;19.012;2023-07-31T00:43:21;5.50;;;4.13;;
79361;SDS011;68830;47.566;19.012;2023-07-31T00:46:24;5.63;;;3.88;;
79361;SDS011;68830;47.566;19.012;2023-07-31T00:49:25;4.55;;;3.60;;
79361;SDS011;68830;47.566;19.012;2023-07-31T00:52:30;4.57;;;2.97;;
79361;SDS011;68830;47.566;19.012;2023-07-31T00:55:32;4.35;;;3.58;;
79361;SDS011;68830;47.566;19.012;2023-07-31T00:58:34;5.03;;;3.63;;
79361;SDS011;68830;47.566;19.012;2023-07-31T01:01:36;4.78;;;4.00;;
79361;SDS011;68830;47.566;19.012;2023-07-31T01:04:38;4.97;;;4.25;;
79361;SDS011;68830;47.566;19.012;2023-07-31T01:07:44;4.55;;;4.00;;
79361;SDS011;68830;47.566;19.012;2023-07-31T01:10:53;4.72;;;4.25;;
79361;SDS011;68830;47.566;19.012;2023-07-31T01:14:01;5.82;;;5.10;;
79361;SDS011;68830;47.566;19.012;2023-07-31T01:17:05;4.75;;;4.25;;
79361;SDS011;68830;47.566;19.012;2023-07-31T01:20:08;6.18;;;5.57;;
79361;SDS011;68830;47.566;19.012;2023-07-31T01:26:55;7.00;;;6.30;;
79361;SDS011;68830;47.566;19.012;2023-07-31T01:30:00;6.47;;;5.88;;
79361;SDS011;68830;47.566;19.012;2023-07-31T01:33:12;9.02;;;6.53;;
79361;SDS011;68830;47.566;19.012;2023-07-31T01:36:15;10.07;;;7.45;;
79361;SDS011;68830;47.566;19.012;2023-07-31T01:39:17;8.82;;;7.93;;
79361;SDS011;68830;47.566;19.012;2023-07-31T01:42:23;7.57;;;6.88;;
79361;SDS011;68830;47.566;19.012;2023-07-31T01:45:25;8.60;;;6.85;;
79361;SDS011;68830;47.566;19.012;2023-07-31T01:48:28;8.13;;;7.32;;
79361;SDS011;68830;47.566;19.012;2023-07-31T01:51:30;6.43;;;5.82;;
79361;SDS011;68830;47.566;19.012;2023-07-31T01:54:35;7.53;;;6.50;;
79361;SDS011;68830;47.566;19.012;2023-07-31T01:57:40;9.10;;;7.32;;
79361;SDS011;68830;47.566;19.012;2023-07-31T02:00:42;7.20;;;6.20;;
79361;SDS011;68830;47.566;19.012;2023-07-31T02:03:44;7.43;;;6.72;;
79361;SDS011;68830;47.566;19.012;2023-07-31T02:06:46;6.25;;;5.68;;
79361;SDS011;68830;47.566;19.012;2023-07-31T02:09:48;6.93;;;6.22;;
79361;SDS011;68830;47.566;19.012;2023-07-31T02:12:52;6.70;;;6.07;;
79361;SDS011;68830;47.566;19.012;2023-07-31T02:15:54;11.50;;;6.32;;
79361;SDS011;68830;47.566;19.012;2023-07-31T02:18:56;7.80;;;5.57;;
79361;SDS011;68830;47.566;19.012;2023-07-31T02:21:59;6.22;;;5.40;;
79361;SDS011;68830;47.566;19.012;2023-07-31T02:25:00;5.95;;;4.95;;
79361;SDS011;68830;47.566;19.012;2023-07-31T02:28:05;6.63;;;5.45;;
79361;SDS011;68830;47.566;19.012;2023-07-31T02:31:07;6.18;;;5.00;;
79361;SDS011;68830;47.566;19.012;2023-07-31T02:34:09;5.57;;;4.85;;
79361;SDS011;68830;47.566;19.012;2023-07-31T02:37:11;8.52;;;5.53;;
79361;SDS011;68830;47.566;19.012;2023-07-31T02:40:13;6.28;;;4.93;;
79361;SDS011;68830;47.566;19.012;2023-07-31T02:43:17;5.45;;;4.57;;
79361;SDS011;68830;47.566;19.012;2023-07-31T02:46:19;7.05;;;5.05;;
79361;SDS011;68830;47.566;19.012;2023-07-31T02:49:22;6.80;;;5.05;;
79361;SDS011;68830;47.566;19.012;2023-07-31T02:52:24;7.30;;;6.07;;
79361;SDS011;68830;47.566;19.012;2023-07-31T02:55:26;11.75;;;5.50;;
79361;SDS011;68830;47.566;19.012;2023-07-31T02:58:31;7.20;;;5.35;;
79361;SDS011;68830;47.566;19.012;2023-07-31T03:01:32;6.65;;;5.20;;
79361;SDS011;68830;47.566;19.012;2023-07-31T03:04:35;7.32;;;5.63;;
79361;SDS011;68830;47.566;19.012;2023-07-31T03:07:37;5.53;;;5.03;;
79361;SDS011;68830;47.566;19.012;2023-07-31T03:10:39;7.70;;;6.63;;
79361;SDS011;68830;47.566;19.012;2023-07-31T03:13:42;6.88;;;5.30;;
79361;SDS011;68830;47.566;19.012;2023-07-31T03:16:45;6.72;;;5.00;;
79361;SDS011;68830;47.566;19.012;2023-07-31T03:19:47;9.10;;;4.97;;
79361;SDS011;68830;47.566;19.012;2023-07-31T03:22:49;5.57;;;5.05;;
79361;SDS011;68830;47.566;19.012;2023-07-31T03:25:57;7.25;;;5.22;;
79361;SDS011;68830;47.566;19.012;2023-07-31T03:29:03;6.75;;;4.70;;
79361;SDS011;68830;47.566;19.012;2023-07-31T03:32:05;5.50;;;4.97;;
79361;SDS011;68830;47.566;19.012;2023-07-31T03:35:07;5.15;;;4.65;;
79361;SDS011;68830;47.566;19.012;2023-07-31T03:38:09;5.35;;;4.68;;
79361;SDS011;68830;47.566;19.012;2023-07-31T03:41:13;8.57;;;4.43;;
79361;SDS011;68830;47.566;19.012;2023-07-31T03:44:16;5.57;;;4.95;;
79361;SDS011;68830;47.566;19.012;2023-07-31T03:47:18;4.20;;;3.67;;
79361;SDS011;68830;47.566;19.012;2023-07-31T03:50:20;8.05;;;3.92;;
79361;SDS011;68830;47.566;19.012;2023-07-31T03:53:22;5.93;;;4.63;;
79361;SDS011;68830;47.566;19.012;2023-07-31T03:56:24;9.27;;;3.92;;
79361;SDS011;68830;47.566;19.012;2023-07-31T03:59:27;4.70;;;3.47;;
79361;SDS011;68830;47.566;19.012;2023-07-31T04:02:29;3.60;;;3.15;;
79361;SDS011;68830;47.566;19.012;2023-07-31T04:05:32;4.10;;;3.10;;
79361;SDS011;68830;47.566;19.012;2023-07-31T04:08:34;3.63;;;3.25;;
79361;SDS011;68830;47.566;19.012;2023-07-31T04:11:36;3.97;;;3.42;;
79361;SDS011;68830;47.566;19.012;2023-07-31T04:14:40;3.70;;;3.25;;
79361;SDS011;68830;47.566;19.012;2023-07-31T04:17:42;5.30;;;3.95;;
79361;SDS011;68830;47.566;19.012;2023-07-31T04:20:44;6.63;;;3.40;;
79361;SDS011;68830;47.566;19.012;2023-07-31T04:23:47;4.65;;;3.90;;
79361;SDS011;68830;47.566;19.012;2023-07-31T04:26:49;6.13;;;3.38;;
79361;SDS011;68830;47.566;19.012;2023-07-31T04:29:52;3.05;;;2.40;;
79361;SDS011;68830;47.566;19.012;2023-07-31T04:32:54;4.35;;;3.55;;
79361;SDS011;68830;47.566;19.012;2023-07-31T04:35:56;3.15;;;2.80;;
79361;SDS011;68830;47.566;19.012;2023-07-31T04:38:59;5.22;;;3.10;;
79361;SDS011;68830;47.566;19.012;2023-07-31T04:42:01;3.78;;;2.83;;
79361;SDS011;68830;47.566;19.012;2023-07-31T04:45:06;3.80;;;3.30;;
79361;SDS011;68830;47.566;19.012;2023-07-31T04:51:11;2.88;;;2.58;;
79361;SDS011;68830;47.566;19.012;2023-07-31T04:54:13;3.40;;;2.38;;
79361;SDS011;68830;47.566;19.012;2023-07-31T04:57:17;3.20;;;2.75;;
79361;SDS011;68830;47.566;19.012;2023-07-31T05:00:20;2.88;;;2.58;;
79361;SDS011;68830;47.566;19.012;2023-07-31T05:03:22;4.95;;;2.65;;
79361;SDS011;68830;47.566;19.012;2023-07-31T05:06:25;3.90;;;2.25;;
79361;SDS011;68830;47.566;19.012;2023-07-31T05:09:27;4.53;;;2.60;;
79361;SDS011;68830;47.566;19.012;2023-07-31T05:12:29;3.22;;;2.55;;
79361;SDS011;68830;47.566;19.012;2023-07-31T05:15:32;4.63;;;2.78;;
79361;SDS011;68830;47.566;19.012;2023-07-31T05:18:34;3.00;;;2.58;;
79361;SDS011;68830;47.566;19.012;2023-07-31T05:21:36;3.88;;;2.40;;
79361;SDS011;68830;47.566;19.012;2023-07-31T05:24:38;3.03;;;2.50;;
79361;SDS011;68830;47.566;19.012;2023-07-31T05:27:40;4.80;;;2.47;;
79361;SDS011;68830;47.566;19.012;2023-07-31T05:30:43;2.67;;;2.13;;
79361;SDS011;68830;47.566;19.012;2023-07-31T05:33:46;3.95;;;2.47;;
79361;SDS011;68830;47.566;19.012;2023-07-31T05:36:48;3.10;;;2.40;;
79361;SDS011;68830;47.566;19.012;2023-07-31T05:39:50;3.10;;;2.28;;
79361;SDS011;68830;47.566;19.012;2023-07-31T05:42:53;5.07;;;2.25;;
79361;SDS011;68830;47.566;19.012;2023-07-31T05:45:56;6.10;;;2.40;;
79361;SDS011;68830;47.566;19.012;2023-07-31T05:48:59;6.30;;;2.65;;
79361;SDS011;68830;47.566;19.012;2023-07-31T05:52:02;5.78;;;2.13;;
79361;SDS011;68830;47.566;19.012;2023-07-31T05:55:05;7.40;;;2.22;;
79361;SDS011;68830;47.566;19.012;2023-07-31T05:58:07;4.38;;;2.05;;
79361;SDS011;68830;47.566;19.012;2023-07-31T06:01:11;3.85;;;2.17;;
79361;SDS011;68830;47.566;19.012;2023-07-31T06:04:13;6.30;;;2.70;;
79361;SDS011;68830;47.566;19.012;2023-07-31T06:07:15;4.28;;;2.95;;
79361;SDS011;68830;47.566;19.012;2023-07-31T06:10:17;5.30;;;2.30;;
79361;SDS011;68830;47.566;19.012;2023-07-31T06:13:20;4.05;;;3.00;;
79361;SDS011;68830;47.566;19.012;2023-07-31T06:16:23;4.13;;;2.25;;
79361;SDS011;68830;47.566;19.012;2023-07-31T06:19:27;2.85;;;2.55;;
79361;SDS011;68830;47.566;19.012;2023-07-31T06:22:29;7.53;;;2.92;;
79361;SDS011;68830;47.566;19.012;2023-07-31T06:25:31;9.93;;;3.03;;
79361;SDS011;68830;47.566;19.012;2023-07-31T06:28:33;4.43;;;2.53;;
79361;SDS011;68830;47.566;19.012;2023-07-31T06:31:36;3.03;;;2.13;;
79361;SDS011;68830;47.566;19.012;2023-07-31T06:34:38;5.40;;;3.05;;
79361;SDS011;68830;47.566;19.012;2023-07-31T06:37:40;4.22;;;2.22;;
79361;SDS011;68830;47.566;19.012;2023-07-31T06:40:45;4.55;;;2.00;;
79361;SDS011;68830;47.566;19.012;2023-07-31T06:43:47;5.50;;;2.20;;
79361;SDS011;68830;47.566;19.012;2023-07-31T06:46:50;7.93;;;3.08;;
79361;SDS011;68830;47.566;19.012;2023-07-31T06:49:52;5.28;;;2.75;;
79361;SDS011;68830;47.566;19.012;2023-07-31T06:52:54;2.85;;;2.30;;
79361;SDS011;68830;47.566;19.012;2023-07-31T06:55:56;7.05;;;2.70;;
79361;SDS011;68830;47.566;19.012;2023-07-31T06:58:59;3.20;;;2.90;;
79361;SDS011;68830;47.566;19.012;2023-07-31T07:02:02;4.15;;;2.88;;
79361;SDS011;68830;47.566;19.012;2023-07-31T07:05:08;4.47;;;2.80;;
79361;SDS011;68830;47.566;19.012;2023-07-31T07:08:10;3.65;;;2.75;;
79361;SDS011;68830;47.566;19.012;2023-07-31T07:11:13;3.55;;;2.88;;
79361;SDS011;68830;47.566;19.012;2023-07-31T07:14:15;4.25;;;3.15;;
79361;SDS011;68830;47.566;19.012;2023-07-31T07:17:19;5.22;;;3.05;;
79361;SDS011;68830;47.566;19.012;2023-07-31T07:20:21;6.43;;;3.30;;
79361;SDS011;68830;47.566;19.012;2023-07-31T07:23:24;4.10;;;2.72;;
79361;SDS011;68830;47.566;19.012;2023-07-31T07:26:26;3.03;;;2.72;;
79361;SDS011;68830;47.566;19.012;2023-07-31T07:29:28;4.55;;;3.25;;
79361;SDS011;68830;47.566;19.012;2023-07-31T07:32:32;6.20;;;2.92;;
79361;SDS011;68830;47.566;19.012;2023-07-31T07:35:34;4.28;;;2.65;;
79361;SDS011;68830;47.566;19.012;2023-07-31T07:38:37;7.75;;;2.70;;
79361;SDS011;68830;47.566;19.012;2023-07-31T07:41:40;5.20;;;2.72;;
79361;SDS011;68830;47.566;19.012;2023-07-31T07:44:42;4.10;;;2.85;;
79361;SDS011;68830;47.566;19.012;2023-07-31T07:47:46;3.65;;;2.60;;
79361;SDS011;68830;47.566;19.012;2023-07-31T07:50:48;4.10;;;2.75;;
79361;SDS011;68830;47.566;19.012;2023-07-31T07:53:51;3.92;;;2.45;;
79361;SDS011;68830;47.566;19.012;2023-07-31T07:56:52;3.97;;;2.47;;
79361;SDS011;68830;47.566;19.012;2023-07-31T07:59:54;6.05;;;3.15;;
79361;SDS011;68830;47.566;19.012;2023-07-31T08:02:58;4.00;;;2.45;;
79361;SDS011;68830;47.566;19.012;2023-07-31T08:06:00;4.43;;;2.53;;
79361;SDS011;68830;47.566;19.012;2023-07-31T08:09:03;3.47;;;2.60;;
79361;SDS011;68830;47.566;19.012;2023-07-31T08:12:08;4.45;;;2.67;;
79361;SDS011;68830;47.566;19.012;2023-07-31T08:15:10;6.25;;;2.72;;
79361;SDS011;68830;47.566;19.012;2023-07-31T08:18:14;4.70;;;2.92;;
79361;SDS011;68830;47.566;19.012;2023-07-31T08:21:17;3.55;;;2.42;;
79361;SDS011;68830;47.566;19.012;2023-07-31T08:24:19;3.30;;;2.40;;
79361;SDS011;68830;47.566;19.012;2023-07-31T08:27:22;4.53;;;2.70;;
79361;SDS011;68830;47.566;19.012;2023-07-31T08:30:24;3.05;;;2.72;;
79361;SDS011;68830;47.566;19.012;2023-07-31T08:33:28;8.88;;;2.90;;
79361;SDS011;68830;47.566;19.012;2023-07-31T08:36:30;6.82;;;2.83;;
79361;SDS011;68830;47.566;19.012;2023-07-31T08:39:32;4.30;;;2.45;;
79361;SDS011;68830;47.566;19.012;2023-07-31T08:42:42;4.65;;;2.92;;
79361;SDS011;68830;47.566;19.012;2023-07-31T08:45:45;6.30;;;3.03;;
79361;SDS011;68830;47.566;19.012;2023-07-31T08:48:49;5.78;;;2.20;;
79361;SDS011;68830;47.566;19.012;2023-07-31T08:51:54;3.75;;;2.55;;
79361;SDS011;68830;47.566;19.012;2023-07-31T08:54:59;2.85;;;2.53;;
79361;SDS011;68830;47.566;19.012;2023-07-31T08:58:01;4.35;;;2.38;;
79361;SDS011;68830;47.566;19.012;2023-07-31T09:01:05;5.40;;;2.97;;
79361;SDS011;68830;47.566;19.012;2023-07-31T09:04:10;4.25;;;2.50;;
79361;SDS011;68830;47.566;19.012;2023-07-31T09:07:14;5.35;;;2.55;;
79361;SDS011;68830;47.566;19.012;2023-07-31T09:10:17;6.03;;;2.80;;
79361;SDS011;68830;47.566;19.012;2023-07-31T09:13:20;6.32;;;3.53;;
79361;SDS011;68830;47.566;19.012;2023-07-31T09:16:26;6.00;;;2.78;;
79361;SDS011;68830;47.566;19.012;2023-07-31T09:19:34;5.93;;;2.70;;
79361;SDS011;68830;47.566;19.012;2023-07-31T09:22:40;4.18;;;2.75;;
79361;SDS011;68830;47.566;19.012;2023-07-31T09:25:43;4.57;;;2.60;;
79361;SDS011;68830;47.566;19.012;2023-07-31T09:28:47;3.25;;;2.13;;
79361;SDS011;68830;47.566;19.012;2023-07-31T09:31:50;4.93;;;2.47;;
79361;SDS011;68830;47.566;19.012;2023-07-31T09:34:53;4.25;;;2.45;;
79361;SDS011;68830;47.566;19.012;2023-07-31T09:37:55;5.20;;;2.58;;
79361;SDS011;68830;47.566;19.012;2023-07-31T09:41:00;8.23;;;2.83;;
79361;SDS011;68830;47.566;19.012;2023-07-31T09:44:03;6.13;;;2.83;;
79361;SDS011;68830;47.566;19.012;2023-07-31T09:47:05;10.60;;;2.45;;
79361;SDS011;68830;47.566;19.012;2023-07-31T09:50:09;4.25;;;2.55;;
79361;SDS011;68830;47.566;19.012;2023-07-31T09:53:11;7.32;;;3.10;;
79361;SDS011;68830;47.566;19.012;2023-07-31T09:56:14;6.97;;;2.38;;
79361;SDS011;68830;47.566;19.012;2023-07-31T09:59:18;4.55;;;2.42;;
79361;SDS011;68830;47.566;19.012;2023-07-31T10:02:24;8.88;;;2.85;;
79361;SDS011;68830;47.566;19.012;2023-07-31T10:05:30;6.25;;;2.58;;
79361;SDS011;68830;47.566;19.012;2023-07-31T10:08:35;4.38;;;2.55;;
79361;SDS011;68830;47.566;19.012;2023-07-31T10:11:41;4.28;;;2.35;;
79361;SDS011;68830;47.566;19.012;2023-07-31T10:14:45;3.17;;;2.28;;
79361;SDS011;68830;47.566;19.012;2023-07-31T10:17:47;4.07;;;2.72;;
79361;SDS011;68830;47.566;19.012;2023-07-31T10:20:52;6.72;;;3.28;;
79361;SDS011;68830;47.566;19.012;2023-07-31T10:23:54;6.47;;;2.28;;
79361;SDS011;68830;47.566;19.012;2023-07-31T10:26:58;5.47;;;3.00;;
79361;SDS011;68830;47.566;19.012;2023-07-31T10:30:03;4.38;;;2.63;;
79361;SDS011;68830;47.566;19.012;2023-07-31T10:33:07;4.45;;;2.58;;
79361;SDS011;68830;47.566;19.012;2023-07-31T10:36:14;3.85;;;2.15;;
79361;SDS011;68830;47.566;19.012;2023-07-31T10:39:34;4.97;;;2.60;;
79361;SDS011;68830;47.566;19.012;2023-07-31T10:42:46;4.20;;;2.33;;
79361;SDS011;68830;47.566;19.012;2023-07-31T10:45:49;6.45;;;1.95;;
79361;SDS011;68830;47.566;19.012;2023-07-31T10:48:57;5.30;;;2.53;;
79361;SDS011;68830;47.566;19.012;2023-07-31T10:52:04;8.55;;;2.55;;
79361;SDS011;68830;47.566;19.012;2023-07-31T10:58:27;4.25;;;2.25;;
79361;SDS011;68830;47.566;19.012;2023-07-31T11:05:05;5.00;;;2.33;;
79361;SDS011;68830;47.566;19.012;2023-07-31T11:08:15;4.45;;;2.53;;
79361;SDS011;68830;47.566;19.012;2023-07-31T11:14:21;3.05;;;2.30;;
79361;SDS011;68830;47.566;19.012;2023-07-31T11:17:24;5.13;;;2.28;;
79361;SDS011;68830;47.566;19.012;2023-07-31T11:20:26;5.20;;;2.67;;
79361;SDS011;68830;47.566;19.012;2023-07-31T11:23:30;6.60;;;3.85;;
79361;SDS011;68830;47.566;19.012;2023-07-31T11:26:32;4.47;;;2.05;;
79361;SDS011;68830;47.566;19.012;2023-07-31T11:29:35;5.25;;;2.10;;
79361;SDS011;68830;47.566;19.012;2023-07-31T11:32:37;2.72;;;2.03;;
79361;SDS011;68830;47.566;19.012;2023-07-31T11:35:41;5.00;;;2.70;;
79361;SDS011;68830;47.566;19.012;2023-07-31T11:38:48;5.07;;;2.40;;
79361;SDS011;68830;47.566;19.012;2023-07-31T11:41:50;10.50;;;3.13;;
79361;SDS011;68830;47.566;19.012;2023-07-31T11:44:52;5.68;;;2.35;;
79361;SDS011;68830;47.566;19.012;2023-07-31T11:47:54;2.95;;;1.85;;
79361;SDS011;68830;47.566;19.012;2023-07-31T11:50:59;4.75;;;2.05;;
79361;SDS011;68830;47.566;19.012;2023-07-31T11:54:03;5.57;;;2.50;;
79361;SDS011;68830;47.566;19.012;2023-07-31T11:57:05;4.43;;;2.35;;
79361;SDS011;68830;47.566;19.012;2023-07-31T12:00:09;4.45;;;2.22;;
79361;SDS011;68830;47.566;19.012;2023-07-31T12:03:14;5.57;;;2.40;;
79361;SDS011;68830;47.566;19.012;2023-07-31T12:06:17;4.60;;;2.53;;
79361;SDS011;68830;47.566;19.012;2023-07-31T12:09:20;2.60;;;2.25;;
79361;SDS011;68830;47.566;19.012;2023-07-31T12:12:24;5.53;;;2.30;;
79361;SDS011;68830;47.566;19.012;2023-07-31T12:15:32;4.95;;;2.35;;
79361;SDS011;68830;47.566;19.012;2023-07-31T12:18:35;4.50;;;2.08;;
79361;SDS011;68830;47.566;19.012;2023-07-31T12:21:39;3.28;;;2.05;;
79361;SDS011;68830;47.566;19.012;2023-07-31T12:24:43;3.63;;;2.35;;
79361;SDS011;68830;47.566;19.012;2023-07-31T12:30:47;6.40;;;2.30;;
79361;SDS011;68830;47.566;19.012;2023-07-31T12:33:50;3.15;;;1.77;;
79361;SDS011;68830;47.566;19.012;2023-07-31T12:36:53;3.95;;;1.98;;
79361;SDS011;68830;47.566;19.012;2023-07-31T12:39:56;3.83;;;1.95;;
79361;SDS011;68830;47.566;19.012;2023-07-31T12:43:02;5.93;;;2.17;;
79361;SDS011;68830;47.566;19.012;2023-07-31T12:46:05;6.78;;;1.98;;
79361;SDS011;68830;47.566;19.012;2023-07-31T12:49:09;4.40;;;2.35;;
79361;SDS011;68830;47.566;19.012;2023-07-31T12:52:11;5.82;;;1.98;;
79361;SDS011;68830;47.566;19.012;2023-07-31T12:55:15;4.43;;;2.15;;
79361;SDS011;68830;47.566;19.012;2023-07-31T12:58:17;15.82;;;4.85;;
79361;SDS011;68830;47.566;19.012;2023-07-31T13:01:19;4.88;;;2.25;;
79361;SDS011;68830;47.566;19.012;2023-07-31T13:04:21;4.63;;;2.20;;
79361;SDS011;68830;47.566;19.012;2023-07-31T13:07:23;14.93;;;2.25;;
79361;SDS011;68830;47.566;19.012;2023-07-31T13:10:26;4.90;;;2.70;;
79361;SDS011;68830;47.566;19.012;2023-07-31T13:13:30;4.13;;;2.30;;
79361;SDS011;68830;47.566;19.012;2023-07-31T13:16:33;6.57;;;2.30;;
79361;SDS011;68830;47.566;19.012;2023-07-31T13:19:36;5.03;;;2.75;;
79361;SDS011;68830;47.566;19.012;2023-07-31T13:22:38;3.25;;;2.00;;
79361;SDS011;68830;47.566;19.012;2023-07-31T13:25:42;4.93;;;2.47;;
79361;SDS011;68830;47.566;19.012;2023-07-31T13:28:44;5.30;;;1.73;;
79361;SDS011;68830;47.566;19.012;2023-07-31T13:31:46;10.35;;;3.13;;
79361;SDS011;68830;47.566;19.012;2023-07-31T13:34:48;2.85;;;2.35;;
79361;SDS011;68830;47.566;19.012;2023-07-31T13:37:50;2.95;;;2.05;;
79361;SDS011;68830;47.566;19.012;2023-07-31T13:40:54;2.88;;;1.88;;
79361;SDS011;68830;47.566;19.012;2023-07-31T13:43:58;5.35;;;2.17;;
79361;SDS011;68830;47.566;19.012;2023-07-31T13:47:00;3.97;;;2.50;;
79361;SDS011;68830;47.566;19.012;2023-07-31T13:50:03;4.47;;;2.50;;
79361;SDS011;68830;47.566;19.012;2023-07-31T13:53:05;4.53;;;2.22;;
79361;SDS011;68830;47.566;19.012;2023-07-31T13:56:09;5.18;;;2.20;;
79361;SDS011;68830;47.566;19.012;2023-07-31T13:59:11;5.13;;;2.40;;
79361;SDS011;68830;47.566;19.012;2023-07-31T14:02:13;21.35;;;5.00;;
79361;SDS011;68830;47.566;19.012;2023-07-31T14:05:17;4.22;;;2.47;;
79361;SDS011;68830;47.566;19.012;2023-07-31T14:08:19;7.90;;;2.25;;
79361;SDS011;68830;47.566;19.012;2023-07-31T14:11:22;4.53;;;2.22;;
79361;SDS011;68830;47.566;19.012;2023-07-31T14:14:24;6.72;;;2.40;;
79361;SDS011;68830;47.566;19.012;2023-07-31T14:17:26;5.00;;;2.60;;
79361;SDS011;68830;47.566;19.012;2023-07-31T14:20:29;4.32;;;2.08;;
79361;SDS011;68830;47.566;19.012;2023-07-31T14:23:31;8.35;;;2.83;;
79361;SDS011;68830;47.566;19.012;2023-07-31T14:26:35;5.22;;;2.30;;
79361;SDS011;68830;47.566;19.012;2023-07-31T14:29:37;4.88;;;2.08;;
79361;SDS011;68830;47.566;19.012;2023-07-31T14:32:40;7.93;;;3.00;;
79361;SDS011;68830;47.566;19.012;2023-07-31T14:35:42;3.97;;;2.20;;
79361;SDS011;68830;47.566;19.012;2023-07-31T14:38:45;7.22;;;2.70;;
79361;SDS011;68830;47.566;19.012;2023-07-31T14:41:48;2.80;;;1.98;;
79361;SDS011;68830;47.566;19.012;2023-07-31T14:44:51;12.80;;;3.35;;
79361;SDS011;68830;47.566;19.012;2023-07-31T14:47:52;13.23;;;3.55;;
79361;SDS011;68830;47.566;19.012;2023-07-31T14:50:55;7.18;;;2.72;;
79361;SDS011;68830;47.566;19.012;2023-07-31T14:53:57;3.90;;;2.30;;
79361;SDS011;68830;47.566;19.012;2023-07-31T14:57:00;3.10;;;1.60;;
79361;SDS011;68830;47.566;19.012;2023-07-31T15:00:02;3.08;;;1.98;;
79361;SDS011;68830;47.566;19.012;2023-07-31T15:03:08;2.50;;;1.92;;
79361;SDS011;68830;47.566;19.012;2023-07-31T15:06:12;4.20;;;2.40;;
79361;SDS011;68830;47.566;19.012;2023-07-31T15:09:14;3.92;;;2.45;;
79361;SDS011;68830;47.566;19.012;2023-07-31T15:12:18;4.65;;;2.40;;
79361;SDS011;68830;47.566;19.012;2023-07-31T15:15:20;4.43;;;2.30;;
79361;SDS011;68830;47.566;19.012;2023-07-31T15:18:22;3.67;;;2.10;;
79361;SDS011;68830;47.566;19.012;2023-07-31T15:21:24;3.35;;;1.90;;
79361;SDS011;68830;47.566;19.012;2023-07-31T15:24:26;3.20;;;2.15;;
79361;SDS011;68830;47.566;19.012;2023-07-31T15:27:30;3.95;;;2.25;;
79361;SDS011;68830;47.566;19.012;2023-07-31T15:30:32;4.65;;;1.80;;
79361;SDS011;68830;47.566;19.012;2023-07-31T15:33:34;2.80;;;1.95;;
79361;SDS011;68830;47.566;19.012;2023-07-31T15:36:38;2.95;;;1.77;;
79361;SDS011;68830;47.566;19.012;2023-07-31T15:39:41;3.67;;;2.60;;
79361;SDS011;68830;47.566;19.012;2023-07-31T15:42:44;3.75;;;2.10;;
79361;SDS011;68830;47.566;19.012;2023-07-31T15:45:46;4.55;;;2.30;;
79361;SDS011;68830;47.566;19.012;2023-07-31T15:48:48;4.40;;;2.00;;
79361;SDS011;68830;47.566;19.012;2023-07-31T15:51:50;5.10;;;2.22;;
79361;SDS011;68830;47.566;19.012;2023-07-31T15:54:52;3.47;;;1.88;;
79361;SDS011;68830;47.566;19.012;2023-07-31T15:57:56;4.55;;;1.65;;
79361;SDS011;68830;47.566;19.012;2023-07-31T16:00:58;5.00;;;2.35;;
79361;SDS011;68830;47.566;19.012;2023-07-31T16:04:00;4.38;;;2.40;;
79361;SDS011;68830;47.566;19.012;2023-07-31T16:07:02;4.45;;;2.55;;
79361;SDS011;68830;47.566;19.012;2023-07-31T16:10:05;4.85;;;2.40;;
79361;SDS011;68830;47.566;19.012;2023-07-31T16:13:09;3.95;;;2.25;;
79361;SDS011;68830;47.566;19.012;2023-07-31T16:16:12;5.32;;;2.25;;
79361;SDS011;68830;47.566;19.012;2023-07-31T16:19:15;3.63;;;2.15;;
79361;SDS011;68830;47.566;19.012;2023-07-31T16:22:17;3.53;;;2.15;;
79361;SDS011;68830;47.566;19.012;2023-07-31T16:25:19;5.97;;;2.20;;
79361;SDS011;68830;47.566;19.012;2023-07-31T16:28:23;4.00;;;1.90;;
79361;SDS011;68830;47.566;19.012;2023-07-31T16:31:25;5.10;;;2.15;;
79361;SDS011;68830;47.566;19.012;2023-07-31T16:34:27;4.30;;;2.13;;
79361;SDS011;68830;47.566;19.012;2023-07-31T16:37:29;4.45;;;2.13;;
79361;SDS011;68830;47.566;19.012;2023-07-31T16:40:32;4.07;;;2.25;;
79361;SDS011;68830;47.566;19.012;2023-07-31T16:43:36;3.78;;;1.90;;
79361;SDS011;68830;47.566;19.012;2023-07-31T16:46:38;4.72;;;2.10;;
79361;SDS011;68830;47.566;19.012;2023-07-31T16:49:40;2.60;;;1.73;;
79361;SDS011;68830;47.566;19.012;2023-07-31T16:52:42;4.28;;;2.10;;
79361;SDS011;68830;47.566;19.012;2023-07-31T16:55:44;5.00;;;1.83;;
79361;SDS011;68830;47.566;19.012;2023-07-31T16:58:47;3.63;;;1.90;;
79361;SDS011;68830;47.566;19.012;2023-07-31T17:01:49;4.82;;;2.35;;
79361;SDS011;68830;47.566;19.012;2023-07-31T17:04:52;2.90;;;2.20;;
79361;SDS011;68830;47.566;19.012;2023-07-31T17:07:54;3.47;;;2.38;;
79361;SDS011;68830;47.566;19.012;2023-07-31T17:10:56;4.00;;;2.28;;
79361;SDS011;68830;47.566;19.012;2023-07-31T17:14:00;3.20;;;1.83;;
79361;SDS011;68830;47.566;19.012;2023-07-31T17:17:05;4.00;;;2.00;;
79361;SDS011;68830;47.566;19.012;2023-07-31T17:20:08;5.80;;;2.17;;
79361;SDS011;68830;47.566;19.012;2023-07-31T17:23:10;3.67;;;2.03;;
79361;SDS011;68830;47.566;19.012;2023-07-31T17:26:12;3.97;;;1.92;;
79361;SDS011;68830;47.566;19.012;2023-07-31T17:29:16;6.20;;;2.25;;
79361;SDS011;68830;47.566;19.012;2023-07-31T17:32:18;3.97;;;2.50;;
79361;SDS011;68830;47.566;19.012;2023-07-31T17:35:25;4.75;;;2.15;;
79361;SDS011;68830;47.566;19.012;2023-07-31T17:38:28;4.68;;;2.20;;
79361;SDS011;68830;47.566;19.012;2023-07-31T17:41:31;3.83;;;2.40;;
79361;SDS011;68830;47.566;19.012;2023-07-31T17:44:35;3.72;;;2.10;;
79361;SDS011;68830;47.566;19.012;2023-07-31T17:47:37;6.30;;;2.45;;
79361;SDS011;68830;47.566;19.012;2023-07-31T17:50:39;3.75;;;2.78;;
79361;SDS011;68830;47.566;19.012;2023-07-31T17:53:42;4.25;;;3.38;;
79361;SDS011;68830;47.566;19.012;2023-07-31T17:56:44;5.35;;;3.05;;
79361;SDS011;68830;47.566;19.012;2023-07-31T17:59:49;6.25;;;4.25;;
79361;SDS011;68830;47.566;19.012;2023-07-31T18:05:55;5.00;;;3.35;;
79361;SDS011;68830;47.566;19.012;2023-07-31T18:08:58;4.38;;;3.38;;
79361;SDS011;68830;47.566;19.012;2023-07-31T18:12:01;7.30;;;2.90;;
79361;SDS011;68830;47.566;19.012;2023-07-31T18:15:06;5.90;;;2.90;;
79361;SDS011;68830;47.566;19.012;2023-07-31T18:18:09;4.25;;;2.72;;
79361;SDS011;68830;47.566;19.012;2023-07-31T18:21:12;6.72;;;2.92;;
79361;SDS011;68830;47.566;19.012;2023-07-31T18:24:15;4.38;;;2.75;;
79361;SDS011;68830;47.566;19.012;2023-07-31T18:27:18;5.45;;;2.80;;